Wesley Chapel, FL (33545)

6:59 AM EDT on October 01, 2014 (GMT -0400)
Williams Acres II | Change Station
CLOSE
Current Station
Personal Weather Station
Location: Wesley Chapel, FL
Elevation: 118 ft
Nearby Weather Stations

Elev 118 ft 28.23 °N, 82.31 °W | Updated 1 second ago

Overcast
Overcast
74.1 °F
Feels Like 70 °F
N
0.0
Wind Variable Wind from SW
Gusts 0.0 mph

Today
High -- | Low -- °F
--% Chance of Precip.
Yesterday
High -- | Low -- °F
Precip. -- in
7:22 AM 7:15 PM
Waxing Crescent, 46% visible
Pressure 29.89 in
Visibility 10.0 miles
Clouds Scattered Clouds 2400 ft
Overcast 4400 ft
Heat Index 70 °F
Dew Point 74 °F
Humidity 99%
Rainfall 0.14 in
Snow Depth Not available.
UV 0 out of 12
Pollen 5.00 out of 12
Air Quality Not available.
Flu Activity Not available.
SPECI KBKV 011013Z AUTO 04004KT 10SM SCT024 OVC044 23/22 A2989 RMK AO2 T02330222

More Conditions Fewer Conditions

Pressure 29.89 in
Visibility 10.0 miles
Clouds Scattered Clouds 2400 ft
Overcast 4400 ft
Heat Index 70 °F
Dew Point 74 °F
Humidity 99%
Rainfall 0.14 in
Snow Depth Not available.
UV 0 out of 12
Pollen 5.00 out of 12
Air Quality Not available.
Flu Activity Not available.
SPECI KBKV 011013Z AUTO 04004KT 10SM SCT024 OVC044 23/22 A2989 RMK AO2 T02330222

More Conditions Fewer Conditions

10-Day Weather Forecast

Almanac

Astronomy

Oct. 01, 2014 Rise Set
Actual Time 7:22 AM EDT 7:15 PM EDT
Civil Twilight 6:58 AM EDT 7:38 PM EDT
Nautical Twilight 6:31 AM EDT 8:05 PM EDT
Astronomical Twilight 6:04 AM EDT 8:33 PM EDT
Moon 2:01 PM EDT 12:07 AM EDT
Length of Visible Light 12h 39m
Length of Day
11h 52m
Tomorrow will be 1m 40s shorter.
Waxing Crescent, 46% of the Moon is Illuminated
Today
Waxing Crescent
Oct 1
First Quarter
Oct 8
Full
Oct 15
Last Quarter
Oct 23
New

Today's Extremes

State Highs State Lows

Community

WunderPhotos

Upload Photos

1,757,910 photos uploaded!

WunderBlogs® & News

Nearby

Snow Depth

Station Depth Elevation
No new snow has been reported.

Earthquake Activity

City Distance Mag. Time & Date
No recent earthquake activity has been reported nearby.
Minimum magnitude displayed is 2.5.

Coastal Water Temperatures

Place Temperature
St Petersburg, FL 84.9 °F
Old Port Tampa, FL 82.9 °F
McKay Bay Entrance, FL 84.9 °F

Nearby Weather Stations